Las Nutrias, New Mexico
Current Conditions -  °F | °C
As of 6:35 PM on Thursday 23 Oct 2014 (Local Time) from KE80 Reporting Station
Clear Clear  
Wind Chill: 68°   Ceiling: Unl
Heat Index: 68°   Visibility: 10mi
Dew Point: 35°   Wind: 5mph
Humidity: 30%   Direction: 140°SE
Pressure: 30.2"   Gusts: NA
Location:  34.445°N, 106.689°W
Report Text: KE80 240035Z AUTO 14004KT 10SM CLR 20/02 A3020 RMK AO2 T01980018
Loading
Personal Weather Stations






























Interactive Weather Map
Tropical Storm Tracking
New forecast layout! Learn more

10-Day Weather Forecast

Advertisements
Track Severe Weather on mobile